Time;durP1;ratioP1;P1;durP2;ratioP2;P2;SDS_P1;SDS_P2;PMS_P1;PMS_P2;Temp;Humidity;BMP_temperature;BMP_pressure;BME280_temperature;BME280_humidity;BME280_pressure;Samples;Min_cycle;Max_cycle;Signal;HPM_P1;HPM_P2
2022/06/07 00:00:34;;;;;;;8.3;7.599999;;;;;;;17.3;87.46289;95292.27;;;;
2022/06/07 00:01:35;;;;;;;8.3;7.599999;;;;;;;17.3;87.46289;95292.27;;;;
2022/06/07 00:02:36;;;;;;;8.3;7.599999;;;;;;;17.3;87.46289;95292.27;;;;
2022/06/07 00:03:37;;;;;;;8.3;7.599999;;;;;;;17.3;87.46289;95292.27;;;;
2022/06/07 00:04:38;;;;;;;8.3;7.599999;;;;;;;17.3;87.46289;95292.27;;;;
2022/06/07 00:05:40;;;;;;;8.3;7.599999;;;;;;;17.3;87.46289;95292.27;;;;
2022/06/07 00:06:41;;;;;;;8.3;7.599999;;;;;;;17.3;87.46289;95292.27;;;;
2022/06/07 00:07:41;;;;;;;8.3;7.599999;;;;;;;17.3;87.46289;95292.27;;;;
2022/06/07 00:08:42;;;;;;;8.3;7.599999;;;;;;;17.3;87.46289;95292.27;;;;
2022/06/07 00:09:43;;;;;;;8.3;7.599999;;;;;;;17.3;87.46289;95292.27;;;;
2022/06/07 00:10:43;;;;;;;8.3;7.599999;;;;;;;17.3;87.46289;95292.27;;;;
2022/06/07 00:11:45;;;;;;;8.3;7.599999;;;;;;;17.3;87.46289;95292.27;;;;
2022/06/07 00:12:45;;;;;;;8.650002;6.05;;;;;;;17.02;87.7998;95304.67;;;;
2022/06/07 00:13:46;;;;;;;8.650002;6.05;;;;;;;17.02;87.7998;95304.67;;;;
2022/06/07 00:14:47;;;;;;;8.650002;6.05;;;;;;;17.02;87.7998;95304.67;;;;
2022/06/07 00:15:48;;;;;;;8.650002;6.05;;;;;;;17.02;87.7998;95304.67;;;;
2022/06/07 00:16:48;;;;;;;8.650002;6.05;;;;;;;17.02;87.7998;95304.67;;;;
2022/06/07 00:17:49;;;;;;;8.650002;6.05;;;;;;;17.02;87.7998;95304.67;;;;
2022/06/07 00:18:49;;;;;;;8.650002;6.05;;;;;;;17.02;87.7998;95304.67;;;;
2022/06/07 00:19:50;;;;;;;8.650002;6.05;;;;;;;17.02;87.7998;95304.67;;;;
2022/06/07 00:20:50;;;;;;;8.650002;6.05;;;;;;;17.02;87.7998;95304.67;;;;
2022/06/07 00:21:51;;;;;;;8.650002;6.05;;;;;;;17.02;87.7998;95304.67;;;;
2022/06/07 00:22:51;;;;;;;8.650002;6.05;;;;;;;17.02;87.7998;95304.67;;;;
2022/06/07 00:23:52;;;;;;;8.700001;6.45;;;;;;;16.85;87.8291;95322.63;;;;
2022/06/07 00:24:52;;;;;;;8.700001;6.45;;;;;;;16.85;87.8291;95322.63;;;;
2022/06/07 00:25:53;;;;;;;8.700001;6.45;;;;;;;16.85;87.8291;95322.63;;;;
2022/06/07 00:26:54;;;;;;;8.700001;6.45;;;;;;;16.85;87.8291;95322.63;;;;
2022/06/07 00:27:55;;;;;;;8.700001;6.45;;;;;;;16.85;87.8291;95322.63;;;;
2022/06/07 00:28:55;;;;;;;8.700001;6.45;;;;;;;16.85;87.8291;95322.63;;;;
2022/06/07 00:29:57;;;;;;;8.700001;6.45;;;;;;;16.85;87.8291;95322.63;;;;
2022/06/07 00:30:57;;;;;;;8.700001;6.45;;;;;;;16.85;87.8291;95322.63;;;;
2022/06/07 00:31:59;;;;;;;8.700001;6.45;;;;;;;16.85;87.8291;95322.63;;;;
2022/06/07 00:33:00;;;;;;;8.700001;6.45;;;;;;;16.85;87.8291;95322.63;;;;
2022/06/07 00:34:01;;;;;;;8.700001;6.45;;;;;;;16.85;87.8291;95322.63;;;;
2022/06/07 00:35:02;;;;;;;7.900001;7.2;;;;;;;16.78;88.08984;95329.49;;;;
2022/06/07 00:36:04;;;;;;;7.900001;7.2;;;;;;;16.78;88.08984;95329.49;;;;
2022/06/07 00:37:06;;;;;;;7.900001;7.2;;;;;;;16.78;88.08984;95329.49;;;;
2022/06/07 00:38:06;;;;;;;7.900001;7.2;;;;;;;16.78;88.08984;95329.49;;;;
2022/06/07 00:39:07;;;;;;;7.900001;7.2;;;;;;;16.78;88.08984;95329.49;;;;
2022/06/07 00:40:08;;;;;;;7.900001;7.2;;;;;;;16.78;88.08984;95329.49;;;;
2022/06/07 00:41:10;;;;;;;7.900001;7.2;;;;;;;16.78;88.08984;95329.49;;;;
2022/06/07 00:42:11;;;;;;;7.900001;7.2;;;;;;;16.78;88.08984;95329.49;;;;
2022/06/07 00:43:12;;;;;;;7.900001;7.2;;;;;;;16.78;88.08984;95329.49;;;;
2022/06/07 00:44:12;;;;;;;7.900001;7.2;;;;;;;16.78;88.08984;95329.49;;;;
2022/06/07 00:45:26;;;;;;;9.000001;8.200001;;;;;;;16.69;88.21094;95343.52;;;;
2022/06/07 00:46:27;;;;;;;9.000001;8.200001;;;;;;;16.69;88.21094;95343.52;;;;
2022/06/07 00:47:28;;;;;;;9.000001;8.200001;;;;;;;16.69;88.21094;95343.52;;;;
2022/06/07 00:48:30;;;;;;;9.000001;8.200001;;;;;;;16.69;88.21094;95343.52;;;;
2022/06/07 00:49:31;;;;;;;9.000001;8.200001;;;;;;;16.69;88.21094;95343.52;;;;
2022/06/07 00:50:36;;;;;;;9.000001;8.200001;;;;;;;16.69;88.21094;95343.52;;;;
2022/06/07 00:51:45;;;;;;;9.000001;8.200001;;;;;;;16.69;88.21094;95343.52;;;;
2022/06/07 00:52:45;;;;;;;9.000001;8.200001;;;;;;;16.69;88.21094;95343.52;;;;
2022/06/07 00:53:46;;;;;;;9.000001;8.200001;;;;;;;16.69;88.21094;95343.52;;;;
2022/06/07 00:54:46;;;;;;;9.000001;8.200001;;;;;;;16.69;88.21094;95343.52;;;;
2022/06/07 00:55:47;;;;;;;8.200001;7.1;;;;;;;16.57;88.35156;95354.32;;;;
2022/06/07 00:56:48;;;;;;;8.200001;7.1;;;;;;;16.57;88.35156;95354.32;;;;
2022/06/07 00:57:52;;;;;;;8.200001;7.1;;;;;;;16.57;88.35156;95354.32;;;;
2022/06/07 00:58:53;;;;;;;8.200001;7.1;;;;;;;16.57;88.35156;95354.32;;;;
2022/06/07 00:59:53;;;;;;;8.200001;7.1;;;;;;;16.57;88.35156;95354.32;;;;
2022/06/07 01:00:54;;;;;;;8.200001;7.1;;;;;;;16.57;88.35156;95354.32;;;;
2022/06/07 01:01:55;;;;;;;8.200001;7.1;;;;;;;16.57;88.35156;95354.32;;;;
2022/06/07 01:02:57;;;;;;;8.200001;7.1;;;;;;;16.57;88.35156;95354.32;;;;
2022/06/07 01:03:57;;;;;;;8.200001;7.1;;;;;;;16.57;88.35156;95354.32;;;;
2022/06/07 01:04:58;;;;;;;8.200001;7.1;;;;;;;16.57;88.35156;95354.32;;;;
2022/06/07 01:10:43;;;;;;;8.200001;7.1;;;;;;;16.57;88.35156;95354.32;;;;
2022/06/07 01:11:47;;;;;;;7.1;6.400001;;;;;;;16.28;88.2832;95357.73;;;;
2022/06/07 01:12:47;;;;;;;7.1;6.400001;;;;;;;16.28;88.2832;95357.73;;;;
2022/06/07 01:13:48;;;;;;;7.1;6.400001;;;;;;;16.28;88.2832;95357.73;;;;
2022/06/07 01:14:48;;;;;;;7.1;6.400001;;;;;;;16.28;88.2832;95357.73;;;;
2022/06/07 01:15:49;;;;;;;7.1;6.400001;;;;;;;16.28;88.2832;95357.73;;;;
2022/06/07 01:16:49;;;;;;;7.35;6.6;;;;;;;15.95;88.61035;95354.05;;;;
2022/06/07 01:17:50;;;;;;;7.35;6.6;;;;;;;15.95;88.61035;95354.05;;;;
2022/06/07 01:18:51;;;;;;;7.35;6.6;;;;;;;15.95;88.61035;95354.05;;;;
2022/06/07 01:19:52;;;;;;;7.35;6.6;;;;;;;15.95;88.61035;95354.05;;;;
2022/06/07 01:20:52;;;;;;;7.35;6.6;;;;;;;15.95;88.61035;95354.05;;;;
2022/06/07 01:22:13;;;;;;;7.35;6.6;;;;;;;15.95;88.61035;95354.05;;;;
2022/06/07 01:23:14;;;;;;;7.35;6.6;;;;;;;15.95;88.61035;95354.05;;;;
2022/06/07 01:24:15;;;;;;;7.35;6.6;;;;;;;15.95;88.61035;95354.05;;;;
2022/06/07 01:25:16;;;;;;;7.35;6.6;;;;;;;15.95;88.61035;95354.05;;;;
2022/06/07 01:26:17;;;;;;;7.35;6.6;;;;;;;15.95;88.61035;95354.05;;;;
2022/06/07 01:27:17;;;;;;;7.35;6.6;;;;;;;15.95;88.61035;95354.05;;;;
2022/06/07 01:28:18;;;;;;;8.1;7;;;;;;;15.62;88.98535;95336.84;;;;
2022/06/07 01:29:18;;;;;;;8.1;7;;;;;;;15.62;88.98535;95336.84;;;;
2022/06/07 01:30:20;;;;;;;8.1;7;;;;;;;15.62;88.98535;95336.84;;;;
2022/06/07 01:31:20;;;;;;;8.1;7;;;;;;;15.62;88.98535;95336.84;;;;
2022/06/07 01:32:21;;;;;;;8.1;7;;;;;;;15.62;88.98535;95336.84;;;;
2022/06/07 01:33:22;;;;;;;8.1;7;;;;;;;15.62;88.98535;95336.84;;;;
2022/06/07 01:34:23;;;;;;;8.1;7;;;;;;;15.62;88.98535;95336.84;;;;
2022/06/07 01:35:24;;;;;;;8.1;7;;;;;;;15.62;88.98535;95336.84;;;;
2022/06/07 01:36:25;;;;;;;8.1;7;;;;;;;15.62;88.98535;95336.84;;;;
2022/06/07 01:37:25;;;;;;;8.1;7;;;;;;;15.62;88.98535;95336.84;;;;
2022/06/07 01:38:26;;;;;;;7.5;6.8;;;;;;;15.41;89.37695;95320.23;;;;
2022/06/07 01:44:38;;;;;;;7.5;6.8;;;;;;;15.41;89.37695;95320.23;;;;
2022/06/07 01:45:41;;;;;;;7.5;6.8;;;;;;;15.41;89.37695;95320.23;;;;
2022/06/07 01:46:41;;;;;;;7.5;6.8;;;;;;;15.41;89.37695;95320.23;;;;
2022/06/07 01:47:42;;;;;;;7.5;6.8;;;;;;;15.41;89.37695;95320.23;;;;
2022/06/07 01:48:42;;;;;;;7.5;6.8;;;;;;;15.41;89.37695;95320.23;;;;
2022/06/07 01:49:43;;;;;;;9.400001;7.5;;;;;;;15.18;89.56934;95308.64;;;;
2022/06/07 01:50:44;;;;;;;9.400001;7.5;;;;;;;15.18;89.56934;95308.64;;;;
2022/06/07 01:51:44;;;;;;;9.400001;7.5;;;;;;;15.18;89.56934;95308.64;;;;
2022/06/07 01:52:45;;;;;;;9.400001;7.5;;;;;;;15.18;89.56934;95308.64;;;;
2022/06/07 01:53:46;;;;;;;9.400001;7.5;;;;;;;15.18;89.56934;95308.64;;;;
2022/06/07 01:54:46;;;;;;;9.400001;7.5;;;;;;;15.18;89.56934;95308.64;;;;
2022/06/07 01:55:47;;;;;;;9.400001;7.5;;;;;;;15.18;89.56934;95308.64;;;;
2022/06/07 01:56:47;;;;;;;9.400001;7.5;;;;;;;15.18;89.56934;95308.64;;;;
2022/06/07 01:57:48;;;;;;;9.400001;7.5;;;;;;;15.18;89.56934;95308.64;;;;
2022/06/07 01:58:49;;;;;;;9.400001;7.5;;;;;;;15.18;89.56934;95308.64;;;;
2022/06/07 01:59:50;;;;;;;8.7;7.349999;;;;;;;15.09;89.95117;95277.69;;;;
2022/06/07 02:00:50;;;;;;;8.7;7.349999;;;;;;;15.09;89.95117;95277.69;;;;
2022/06/07 02:01:52;;;;;;;8.7;7.349999;;;;;;;15.09;89.95117;95277.69;;;;
2022/06/07 02:02:53;;;;;;;8.7;7.349999;;;;;;;15.09;89.95117;95277.69;;;;
2022/06/07 02:03:54;;;;;;;8.7;7.349999;;;;;;;15.09;89.95117;95277.69;;;;
2022/06/07 02:04:54;;;;;;;8.7;7.349999;;;;;;;15.09;89.95117;95277.69;;;;
2022/06/07 02:05:56;;;;;;;8.7;7.349999;;;;;;;15.09;89.95117;95277.69;;;;
2022/06/07 02:06:58;;;;;;;8.7;7.349999;;;;;;;15.09;89.95117;95277.69;;;;
2022/06/07 02:07:58;;;;;;;8.7;7.349999;;;;;;;15.09;89.95117;95277.69;;;;
2022/06/07 02:08:59;;;;;;;8.7;7.349999;;;;;;;15.09;89.95117;95277.69;;;;
2022/06/07 02:09:59;;;;;;;8.7;7.349999;;;;;;;15.09;89.95117;95277.69;;;;
2022/06/07 02:11:00;;;;;;;9.1;8.199999;;;;;;;14.96;90.06543;95265.22;;;;
2022/06/07 02:12:05;;;;;;;9.1;8.199999;;;;;;;14.96;90.06543;95265.22;;;;
2022/06/07 02:13:06;;;;;;;9.1;8.199999;;;;;;;14.96;90.06543;95265.22;;;;
2022/06/07 02:14:07;;;;;;;9.1;8.199999;;;;;;;14.96;90.06543;95265.22;;;;
2022/06/07 02:15:08;;;;;;;9.1;8.199999;;;;;;;14.96;90.06543;95265.22;;;;
2022/06/07 02:16:09;;;;;;;9.1;8.199999;;;;;;;14.96;90.06543;95265.22;;;;
2022/06/07 02:17:10;;;;;;;9.1;8.199999;;;;;;;14.96;90.06543;95265.22;;;;
2022/06/07 02:18:11;;;;;;;9.1;8.199999;;;;;;;14.96;90.06543;95265.22;;;;
2022/06/07 02:19:12;;;;;;;9.1;8.199999;;;;;;;14.96;90.06543;95265.22;;;;
2022/06/07 02:20:13;;;;;;;9.1;8.199999;;;;;;;14.96;90.06543;95265.22;;;;
2022/06/07 02:21:13;;;;;;;9.949999;8.9;;;;;;;14.9;90.33496;95265.64;;;;
2022/06/07 02:22:15;;;;;;;9.949999;8.9;;;;;;;14.9;90.33496;95265.64;;;;
2022/06/07 02:23:16;;;;;;;9.949999;8.9;;;;;;;14.9;90.33496;95265.64;;;;
2022/06/07 02:24:16;;;;;;;9.949999;8.9;;;;;;;14.9;90.33496;95265.64;;;;
2022/06/07 02:25:17;;;;;;;9.949999;8.9;;;;;;;14.9;90.33496;95265.64;;;;
2022/06/07 02:26:18;;;;;;;9.949999;8.9;;;;;;;14.9;90.33496;95265.64;;;;
2022/06/07 02:27:23;;;;;;;9.949999;8.9;;;;;;;14.9;90.33496;95265.64;;;;
2022/06/07 02:28:23;;;;;;;9.949999;8.9;;;;;;;14.9;90.33496;95265.64;;;;
2022/06/07 02:29:29;;;;;;;9.949999;8.9;;;;;;;14.9;90.33496;95265.64;;;;
2022/06/07 02:30:32;;;;;;;9.949999;8.9;;;;;;;14.9;90.33496;95265.64;;;;
2022/06/07 02:31:33;;;;;;;12.3;9.050001;;;;;;;14.81;90.52148;95271.48;;;;
2022/06/07 02:32:36;;;;;;;12.3;9.050001;;;;;;;14.81;90.52148;95271.48;;;;
2022/06/07 02:33:38;;;;;;;12.3;9.050001;;;;;;;14.81;90.52148;95271.48;;;;
2022/06/07 02:34:41;;;;;;;12.3;9.050001;;;;;;;14.81;90.52148;95271.48;;;;
2022/06/07 02:35:44;;;;;;;12.3;9.050001;;;;;;;14.81;90.52148;95271.48;;;;
2022/06/07 02:36:46;;;;;;;12.3;9.050001;;;;;;;14.81;90.52148;95271.48;;;;
2022/06/07 02:37:50;;;;;;;12.3;9.050001;;;;;;;14.81;90.52148;95271.48;;;;
2022/06/07 02:38:50;;;;;;;12.3;9.050001;;;;;;;14.81;90.52148;95271.48;;;;
2022/06/07 02:39:51;;;;;;;12.3;9.050001;;;;;;;14.81;90.52148;95271.48;;;;
2022/06/07 02:40:53;;;;;;;12.3;9.050001;;;;;;;14.81;90.52148;95271.48;;;;
2022/06/07 02:41:54;;;;;;;12.3;9.050001;;;;;;;14.81;90.52148;95271.48;;;;
2022/06/07 02:42:55;;;;;;;11.65;10.45;;;;;;;14.87;90.79395;95267.86;;;;
2022/06/07 02:43:55;;;;;;;11.65;10.45;;;;;;;14.87;90.79395;95267.86;;;;
2022/06/07 02:44:57;;;;;;;11.65;10.45;;;;;;;14.87;90.79395;95267.86;;;;
2022/06/07 02:45:58;;;;;;;11.65;10.45;;;;;;;14.87;90.79395;95267.86;;;;
2022/06/07 02:46:59;;;;;;;11.65;10.45;;;;;;;14.87;90.79395;95267.86;;;;
2022/06/07 02:48:00;;;;;;;11.65;10.45;;;;;;;14.87;90.79395;95267.86;;;;
2022/06/07 02:49:00;;;;;;;11.65;10.45;;;;;;;14.87;90.79395;95267.86;;;;
2022/06/07 02:50:00;;;;;;;11.65;10.45;;;;;;;14.87;90.79395;95267.86;;;;
2022/06/07 02:51:01;;;;;;;11.65;10.45;;;;;;;14.87;90.79395;95267.86;;;;
2022/06/07 02:52:02;;;;;;;11.65;10.45;;;;;;;14.87;90.79395;95267.86;;;;
2022/06/07 02:53:03;;;;;;;10.5;9.5;;;;;;;14.87;90.77051;95281.28;;;;
2022/06/07 02:54:05;;;;;;;10.5;9.5;;;;;;;14.87;90.77051;95281.28;;;;
2022/06/07 02:55:05;;;;;;;10.5;9.5;;;;;;;14.87;90.77051;95281.28;;;;
2022/06/07 02:56:06;;;;;;;10.5;9.5;;;;;;;14.87;90.77051;95281.28;;;;
2022/06/07 02:57:07;;;;;;;10.5;9.5;;;;;;;14.87;90.77051;95281.28;;;;
2022/06/07 02:58:07;;;;;;;10.5;9.5;;;;;;;14.87;90.77051;95281.28;;;;
2022/06/07 02:59:08;;;;;;;10.5;9.5;;;;;;;14.87;90.77051;95281.28;;;;
2022/06/07 03:00:08;;;;;;;10.5;9.5;;;;;;;14.87;90.77051;95281.28;;;;
2022/06/07 03:01:12;;;;;;;10.5;9.5;;;;;;;14.87;90.77051;95281.28;;;;
2022/06/07 03:02:12;;;;;;;10.5;9.5;;;;;;;14.87;90.77051;95281.28;;;;
2022/06/07 03:03:13;;;;;;;10.5;9.5;;;;;;;14.87;90.77051;95281.28;;;;
2022/06/07 03:04:13;;;;;;;9.549999;8.749999;;;;;;;14.87;91.02148;95286.08;;;;
2022/06/07 03:05:14;;;;;;;9.549999;8.749999;;;;;;;14.87;91.02148;95286.08;;;;
2022/06/07 03:06:15;;;;;;;9.549999;8.749999;;;;;;;14.87;91.02148;95286.08;;;;
2022/06/07 03:07:15;;;;;;;9.549999;8.749999;;;;;;;14.87;91.02148;95286.08;;;;
2022/06/07 03:08:18;;;;;;;9.549999;8.749999;;;;;;;14.87;91.02148;95286.08;;;;
2022/06/07 03:09:19;;;;;;;9.549999;8.749999;;;;;;;14.87;91.02148;95286.08;;;;
2022/06/07 03:10:20;;;;;;;9.549999;8.749999;;;;;;;14.87;91.02148;95286.08;;;;
2022/06/07 03:11:21;;;;;;;9.549999;8.749999;;;;;;;14.87;91.02148;95286.08;;;;
2022/06/07 03:12:22;;;;;;;9.549999;8.749999;;;;;;;14.87;91.02148;95286.08;;;;
2022/06/07 03:13:22;;;;;;;9.549999;8.749999;;;;;;;14.87;91.02148;95286.08;;;;
2022/06/07 03:14:24;;;;;;;8.850001;7.75;;;;;;;14.85;91.09082;95291.38;;;;
2022/06/07 03:15:24;;;;;;;8.850001;7.75;;;;;;;14.85;91.09082;95291.38;;;;
2022/06/07 03:16:26;;;;;;;8.850001;7.75;;;;;;;14.85;91.09082;95291.38;;;;
2022/06/07 03:17:26;;;;;;;8.850001;7.75;;;;;;;14.85;91.09082;95291.38;;;;
2022/06/07 03:18:27;;;;;;;8.850001;7.75;;;;;;;14.85;91.09082;95291.38;;;;
2022/06/07 03:19:28;;;;;;;8.850001;7.75;;;;;;;14.85;91.09082;95291.38;;;;
2022/06/07 03:20:28;;;;;;;8.850001;7.75;;;;;;;14.85;91.09082;95291.38;;;;
2022/06/07 03:21:29;;;;;;;8.850001;7.75;;;;;;;14.85;91.09082;95291.38;;;;
2022/06/07 03:22:30;;;;;;;8.850001;7.75;;;;;;;14.85;91.09082;95291.38;;;;
2022/06/07 03:23:31;;;;;;;8.850001;7.75;;;;;;;14.85;91.09082;95291.38;;;;
2022/06/07 03:24:32;;;;;;;8.850001;7.75;;;;;;;14.85;91.09082;95291.38;;;;
2022/06/07 03:25:32;;;;;;;10.5;8.5;;;;;;;14.86;91.27832;95292.47;;;;
2022/06/07 03:26:33;;;;;;;10.5;8.5;;;;;;;14.86;91.27832;95292.47;;;;
2022/06/07 03:27:35;;;;;;;10.5;8.5;;;;;;;14.86;91.27832;95292.47;;;;
2022/06/07 03:28:37;;;;;;;10.5;8.5;;;;;;;14.86;91.27832;95292.47;;;;
2022/06/07 03:29:38;;;;;;;10.5;8.5;;;;;;;14.86;91.27832;95292.47;;;;
2022/06/07 03:30:39;;;;;;;10.5;8.5;;;;;;;14.86;91.27832;95292.47;;;;
2022/06/07 03:31:39;;;;;;;10.5;8.5;;;;;;;14.86;91.27832;95292.47;;;;
2022/06/07 03:32:40;;;;;;;10.5;8.5;;;;;;;14.86;91.27832;95292.47;;;;
2022/06/07 03:33:40;;;;;;;10.5;8.5;;;;;;;14.86;91.27832;95292.47;;;;
2022/06/07 03:34:42;;;;;;;10.5;8.5;;;;;;;14.86;91.27832;95292.47;;;;
2022/06/07 03:35:42;;;;;;;9.950001;8.950001;;;;;;;14.84;91.3916;95287.48;;;;
2022/06/07 03:36:43;;;;;;;9.950001;8.950001;;;;;;;14.84;91.3916;95287.48;;;;
2022/06/07 03:37:44;;;;;;;9.950001;8.950001;;;;;;;14.84;91.3916;95287.48;;;;
2022/06/07 03:38:44;;;;;;;9.950001;8.950001;;;;;;;14.84;91.3916;95287.48;;;;
2022/06/07 03:39:45;;;;;;;9.950001;8.950001;;;;;;;14.84;91.3916;95287.48;;;;
2022/06/07 03:40:45;;;;;;;9.950001;8.950001;;;;;;;14.84;91.3916;95287.48;;;;
2022/06/07 03:41:46;;;;;;;9.950001;8.950001;;;;;;;14.84;91.3916;95287.48;;;;
2022/06/07 03:42:46;;;;;;;9.950001;8.950001;;;;;;;14.84;91.3916;95287.48;;;;
2022/06/07 03:43:47;;;;;;;9.950001;8.950001;;;;;;;14.84;91.3916;95287.48;;;;
2022/06/07 03:44:48;;;;;;;9.950001;8.950001;;;;;;;14.84;91.3916;95287.48;;;;
2022/06/07 03:45:49;;;;;;;9.950001;8.950001;;;;;;;14.84;91.3916;95287.48;;;;
2022/06/07 03:46:49;;;;;;;8.35;7.55;;;;;;;14.9;91.70801;95293.19;;;;
2022/06/07 03:47:50;;;;;;;8.35;7.55;;;;;;;14.9;91.70801;95293.19;;;;
2022/06/07 03:48:50;;;;;;;8.35;7.55;;;;;;;14.9;91.70801;95293.19;;;;
2022/06/07 03:49:52;;;;;;;8.35;7.55;;;;;;;14.9;91.70801;95293.19;;;;
2022/06/07 03:50:52;;;;;;;8.35;7.55;;;;;;;14.9;91.70801;95293.19;;;;
2022/06/07 03:51:53;;;;;;;8.35;7.55;;;;;;;14.9;91.70801;95293.19;;;;
2022/06/07 03:52:54;;;;;;;8.35;7.55;;;;;;;14.9;91.70801;95293.19;;;;
2022/06/07 03:53:55;;;;;;;8.35;7.55;;;;;;;14.9;91.70801;95293.19;;;;
2022/06/07 03:54:56;;;;;;;8.35;7.55;;;;;;;14.9;91.70801;95293.19;;;;
2022/06/07 03:55:57;;;;;;;8.35;7.55;;;;;;;14.9;91.70801;95293.19;;;;
2022/06/07 03:56:58;;;;;;;6.450001;5.849999;;;;;;;14.88;91.75586;95290.89;;;;
2022/06/07 03:57:58;;;;;;;6.450001;5.849999;;;;;;;14.88;91.75586;95290.89;;;;
2022/06/07 03:58:59;;;;;;;6.450001;5.849999;;;;;;;14.88;91.75586;95290.89;;;;
2022/06/07 04:00:01;;;;;;;6.450001;5.849999;;;;;;;14.88;91.75586;95290.89;;;;
2022/06/07 04:01:03;;;;;;;6.450001;5.849999;;;;;;;14.88;91.75586;95290.89;;;;
2022/06/07 04:02:04;;;;;;;6.450001;5.849999;;;;;;;14.88;91.75586;95290.89;;;;
2022/06/07 04:03:05;;;;;;;6.450001;5.849999;;;;;;;14.88;91.75586;95290.89;;;;
2022/06/07 04:04:06;;;;;;;6.450001;5.849999;;;;;;;14.88;91.75586;95290.89;;;;
2022/06/07 04:05:09;;;;;;;6.450001;5.849999;;;;;;;14.88;91.75586;95290.89;;;;
2022/06/07 04:06:09;;;;;;;6.450001;5.849999;;;;;;;14.88;91.75586;95290.89;;;;
2022/06/07 04:08:22;;;;;;;6.450001;5.849999;;;;;;;14.88;91.75586;95290.89;;;;
2022/06/07 04:09:23;;;;;;;6.699999;6.000001;;;;;;;14.88;91.95117;95289.97;;;;
2022/06/07 04:10:24;;;;;;;6.699999;6.000001;;;;;;;14.88;91.95117;95289.97;;;;
2022/06/07 04:11:24;;;;;;;6.699999;6.000001;;;;;;;14.88;91.95117;95289.97;;;;
2022/06/07 04:12:27;;;;;;;6.699999;6.000001;;;;;;;14.88;91.95117;95289.97;;;;
2022/06/07 04:13:27;;;;;;;6.699999;6.000001;;;;;;;14.88;91.95117;95289.97;;;;
2022/06/07 04:14:30;;;;;;;6.699999;6.000001;;;;;;;14.88;91.95117;95289.97;;;;
2022/06/07 04:15:31;;;;;;;6.699999;6.000001;;;;;;;14.88;91.95117;95289.97;;;;
2022/06/07 04:16:31;;;;;;;6.699999;6.000001;;;;;;;14.88;91.95117;95289.97;;;;
2022/06/07 04:17:32;;;;;;;6.699999;6.000001;;;;;;;14.88;91.95117;95289.97;;;;
2022/06/07 04:18:33;;;;;;;7.5;6.35;;;;;;;14.83;91.99707;95291.62;;;;
2022/06/07 04:19:34;;;;;;;7.5;6.35;;;;;;;14.83;91.99707;95291.62;;;;
2022/06/07 04:20:35;;;;;;;7.5;6.35;;;;;;;14.83;91.99707;95291.62;;;;
2022/06/07 04:21:36;;;;;;;7.5;6.35;;;;;;;14.83;91.99707;95291.62;;;;
2022/06/07 04:22:37;;;;;;;7.5;6.35;;;;;;;14.83;91.99707;95291.62;;;;
2022/06/07 04:23:37;;;;;;;7.5;6.35;;;;;;;14.83;91.99707;95291.62;;;;
2022/06/07 04:24:39;;;;;;;7.5;6.35;;;;;;;14.83;91.99707;95291.62;;;;
2022/06/07 04:25:41;;;;;;;7.5;6.35;;;;;;;14.83;91.99707;95291.62;;;;
2022/06/07 04:26:41;;;;;;;7.5;6.35;;;;;;;14.83;91.99707;95291.62;;;;
2022/06/07 04:27:42;;;;;;;7.5;6.35;;;;;;;14.83;91.99707;95291.62;;;;
2022/06/07 04:28:42;;;;;;;7.5;6.35;;;;;;;14.83;91.99707;95291.62;;;;
2022/06/07 04:29:43;;;;;;;7.200001;6.599999;;;;;;;14.86;92.3252;95275.68;;;;
2022/06/07 04:30:44;;;;;;;7.200001;6.599999;;;;;;;14.86;92.3252;95275.68;;;;
2022/06/07 04:31:46;;;;;;;7.200001;6.599999;;;;;;;14.86;92.3252;95275.68;;;;
2022/06/07 04:32:47;;;;;;;7.200001;6.599999;;;;;;;14.86;92.3252;95275.68;;;;
2022/06/07 04:33:48;;;;;;;7.200001;6.599999;;;;;;;14.86;92.3252;95275.68;;;;
2022/06/07 04:34:49;;;;;;;7.200001;6.599999;;;;;;;14.86;92.3252;95275.68;;;;
2022/06/07 04:35:49;;;;;;;7.200001;6.599999;;;;;;;14.86;92.3252;95275.68;;;;
2022/06/07 04:36:50;;;;;;;7.200001;6.599999;;;;;;;14.86;92.3252;95275.68;;;;
2022/06/07 04:37:50;;;;;;;7.200001;6.599999;;;;;;;14.86;92.3252;95275.68;;;;
2022/06/07 04:38:53;;;;;;;7.200001;6.599999;;;;;;;14.86;92.3252;95275.68;;;;
2022/06/07 04:39:54;;;;;;;6.799999;6.2;;;;;;;14.85;92.38965;95284.59;;;;
2022/06/07 04:40:55;;;;;;;6.799999;6.2;;;;;;;14.85;92.38965;95284.59;;;;
2022/06/07 04:41:55;;;;;;;6.799999;6.2;;;;;;;14.85;92.38965;95284.59;;;;
2022/06/07 04:42:56;;;;;;;6.799999;6.2;;;;;;;14.85;92.38965;95284.59;;;;
2022/06/07 04:43:56;;;;;;;6.799999;6.2;;;;;;;14.85;92.38965;95284.59;;;;
2022/06/07 04:44:57;;;;;;;6.799999;6.2;;;;;;;14.85;92.38965;95284.59;;;;
2022/06/07 04:45:57;;;;;;;6.799999;6.2;;;;;;;14.85;92.38965;95284.59;;;;
2022/06/07 04:47:03;;;;;;;6.799999;6.2;;;;;;;14.85;92.38965;95284.59;;;;
2022/06/07 04:48:04;;;;;;;6.799999;6.2;;;;;;;14.85;92.38965;95284.59;;;;
2022/06/07 04:49:06;;;;;;;6.799999;6.2;;;;;;;14.85;92.38965;95284.59;;;;
2022/06/07 04:50:06;;;;;;;6.799999;6.2;;;;;;;14.85;92.38965;95284.59;;;;
2022/06/07 04:51:09;;;;;;;6.849999;6.249999;;;;;;;14.97;92.64063;95281.87;;;;
2022/06/07 04:52:11;;;;;;;6.849999;6.249999;;;;;;;14.97;92.64063;95281.87;;;;
2022/06/07 04:53:12;;;;;;;6.849999;6.249999;;;;;;;14.97;92.64063;95281.87;;;;
2022/06/07 04:54:12;;;;;;;6.849999;6.249999;;;;;;;14.97;92.64063;95281.87;;;;
2022/06/07 04:55:13;;;;;;;6.849999;6.249999;;;;;;;14.97;92.64063;95281.87;;;;
2022/06/07 04:56:17;;;;;;;6.849999;6.249999;;;;;;;14.97;92.64063;95281.87;;;;
2022/06/07 04:57:19;;;;;;;6.849999;6.249999;;;;;;;14.97;92.64063;95281.87;;;;
2022/06/07 04:58:20;;;;;;;6.849999;6.249999;;;;;;;14.97;92.64063;95281.87;;;;
2022/06/07 04:59:20;;;;;;;6.849999;6.249999;;;;;;;14.97;92.64063;95281.87;;;;
2022/06/07 05:00:21;;;;;;;6.849999;6.249999;;;;;;;14.97;92.64063;95281.87;;;;
2022/06/07 05:01:21;;;;;;;6.15;5.550001;;;;;;;15.09;92.6875;95268.38;;;;
2022/06/07 05:02:25;;;;;;;6.15;5.550001;;;;;;;15.09;92.6875;95268.38;;;;
2022/06/07 05:03:25;;;;;;;6.15;5.550001;;;;;;;15.09;92.6875;95268.38;;;;
2022/06/07 05:04:26;;;;;;;6.15;5.550001;;;;;;;15.09;92.6875;95268.38;;;;
2022/06/07 05:05:26;;;;;;;6.15;5.550001;;;;;;;15.09;92.6875;95268.38;;;;
2022/06/07 05:06:28;;;;;;;6.15;5.550001;;;;;;;15.09;92.6875;95268.38;;;;
2022/06/07 05:07:31;;;;;;;6.15;5.550001;;;;;;;15.09;92.6875;95268.38;;;;
2022/06/07 05:08:31;;;;;;;6.15;5.550001;;;;;;;15.09;92.6875;95268.38;;;;
2022/06/07 05:09:32;;;;;;;6.15;5.550001;;;;;;;15.09;92.6875;95268.38;;;;
2022/06/07 05:10:33;;;;;;;6.15;5.550001;;;;;;;15.09;92.6875;95268.38;;;;
2022/06/07 05:11:33;;;;;;;6.15;5.550001;;;;;;;15.09;92.6875;95268.38;;;;
2022/06/07 05:12:34;;;;;;;6.25;5.650001;;;;;;;15.4;93.00098;95265.76;;;;
2022/06/07 05:13:35;;;;;;;6.25;5.650001;;;;;;;15.4;93.00098;95265.76;;;;
2022/06/07 05:14:35;;;;;;;6.25;5.650001;;;;;;;15.4;93.00098;95265.76;;;;
2022/06/07 05:15:36;;;;;;;6.25;5.650001;;;;;;;15.4;93.00098;95265.76;;;;
2022/06/07 05:16:37;;;;;;;6.25;5.650001;;;;;;;15.4;93.00098;95265.76;;;;
2022/06/07 05:17:38;;;;;;;6.25;5.650001;;;;;;;15.4;93.00098;95265.76;;;;
2022/06/07 05:18:39;;;;;;;6.25;5.650001;;;;;;;15.4;93.00098;95265.76;;;;
2022/06/07 05:19:39;;;;;;;6.25;5.650001;;;;;;;15.4;93.00098;95265.76;;;;
2022/06/07 05:20:40;;;;;;;6.25;5.650001;;;;;;;15.4;93.00098;95265.76;;;;
2022/06/07 05:21:40;;;;;;;6.25;5.650001;;;;;;;15.4;93.00098;95265.76;;;;
2022/06/07 05:22:42;;;;;;;6.3;5.75;;;;;;;15.55;92.80566;95271.72;;;;
2022/06/07 05:23:43;;;;;;;6.3;5.75;;;;;;;15.55;92.80566;95271.72;;;;
2022/06/07 05:24:44;;;;;;;6.3;5.75;;;;;;;15.55;92.80566;95271.72;;;;
2022/06/07 05:25:45;;;;;;;6.3;5.75;;;;;;;15.55;92.80566;95271.72;;;;
2022/06/07 05:26:55;;;;;;;6.3;5.75;;;;;;;15.55;92.80566;95271.72;;;;
2022/06/07 05:27:59;;;;;;;6.3;5.75;;;;;;;15.55;92.80566;95271.72;;;;
2022/06/07 05:28:59;;;;;;;6.3;5.75;;;;;;;15.55;92.80566;95271.72;;;;
2022/06/07 05:30:01;;;;;;;6.3;5.75;;;;;;;15.55;92.80566;95271.72;;;;
2022/06/07 05:31:02;;;;;;;6.3;5.75;;;;;;;15.55;92.80566;95271.72;;;;
2022/06/07 05:32:04;;;;;;;6.3;5.75;;;;;;;15.55;92.80566;95271.72;;;;
2022/06/07 05:33:05;;;;;;;7.45;5.3;;;;;;;15.56;92.75293;95272.94;;;;
2022/06/07 05:34:06;;;;;;;7.45;5.3;;;;;;;15.56;92.75293;95272.94;;;;
2022/06/07 05:35:06;;;;;;;7.45;5.3;;;;;;;15.56;92.75293;95272.94;;;;
2022/06/07 05:36:08;;;;;;;7.45;5.3;;;;;;;15.56;92.75293;95272.94;;;;
2022/06/07 05:37:09;;;;;;;7.45;5.3;;;;;;;15.56;92.75293;95272.94;;;;
2022/06/07 05:38:15;;;;;;;7.45;5.3;;;;;;;15.56;92.75293;95272.94;;;;
2022/06/07 05:39:15;;;;;;;7.45;5.3;;;;;;;15.56;92.75293;95272.94;;;;
2022/06/07 05:40:20;;;;;;;7.45;5.3;;;;;;;15.56;92.75293;95272.94;;;;
2022/06/07 05:41:21;;;;;;;7.45;5.3;;;;;;;15.56;92.75293;95272.94;;;;
2022/06/07 05:42:24;;;;;;;7.45;5.3;;;;;;;15.56;92.75293;95272.94;;;;
2022/06/07 05:43:24;;;;;;;7.45;5.3;;;;;;;15.56;92.75293;95272.94;;;;
2022/06/07 05:44:25;;;;;;;6.05;5.15;;;;;;;15.35;92.54785;95282.4;;;;